sensor_id;sensor_type;location;lat;lon;timestamp;P1;durP1;ratioP1;P2;durP2;ratioP2
75628;SDS011;64213;46.452;16.994;2023-12-28T00:00:13;25.02;;;10.00;;
75628;SDS011;64213;46.452;16.994;2023-12-28T00:03:16;20.87;;;8.33;;
75628;SDS011;64213;46.452;16.994;2023-12-28T00:06:19;20.62;;;8.25;;
75628;SDS011;64213;46.452;16.994;2023-12-28T00:09:21;17.95;;;7.40;;
75628;SDS011;64213;46.452;16.994;2023-12-28T00:12:24;21.35;;;8.80;;
75628;SDS011;64213;46.452;16.994;2023-12-28T00:15:26;18.15;;;7.85;;
75628;SDS011;64213;46.452;16.994;2023-12-28T00:18:29;20.07;;;7.97;;
75628;SDS011;64213;46.452;16.994;2023-12-28T00:21:31;20.02;;;8.05;;
75628;SDS011;64213;46.452;16.994;2023-12-28T00:24:35;23.40;;;8.93;;
75628;SDS011;64213;46.452;16.994;2023-12-28T00:27:38;26.62;;;9.70;;
75628;SDS011;64213;46.452;16.994;2023-12-28T00:30:40;18.35;;;7.53;;
75628;SDS011;64213;46.452;16.994;2023-12-28T00:33:43;15.53;;;6.17;;
75628;SDS011;64213;46.452;16.994;2023-12-28T00:36:45;20.33;;;8.05;;
75628;SDS011;64213;46.452;16.994;2023-12-28T00:39:49;23.02;;;8.43;;
75628;SDS011;64213;46.452;16.994;2023-12-28T00:42:52;21.77;;;8.48;;
75628;SDS011;64213;46.452;16.994;2023-12-28T00:45:55;20.08;;;8.20;;
75628;SDS011;64213;46.452;16.994;2023-12-28T00:48:57;19.07;;;7.53;;
75628;SDS011;64213;46.452;16.994;2023-12-28T00:52:00;23.75;;;9.45;;
75628;SDS011;64213;46.452;16.994;2023-12-28T00:55:02;22.92;;;8.77;;
75628;SDS011;64213;46.452;16.994;2023-12-28T00:58:05;18.70;;;7.80;;
75628;SDS011;64213;46.452;16.994;2023-12-28T01:01:08;24.60;;;8.57;;
75628;SDS011;64213;46.452;16.994;2023-12-28T01:04:12;20.33;;;8.47;;
75628;SDS011;64213;46.452;16.994;2023-12-28T01:07:14;22.58;;;9.10;;
75628;SDS011;64213;46.452;16.994;2023-12-28T01:10:17;15.38;;;6.50;;
75628;SDS011;64213;46.452;16.994;2023-12-28T01:13:19;18.08;;;6.03;;
75628;SDS011;64213;46.452;16.994;2023-12-28T01:16:22;20.77;;;7.90;;
75628;SDS011;64213;46.452;16.994;2023-12-28T01:19:24;18.43;;;7.57;;
75628;SDS011;64213;46.452;16.994;2023-12-28T01:22:27;19.90;;;8.23;;
75628;SDS011;64213;46.452;16.994;2023-12-28T01:25:30;16.62;;;7.03;;
75628;SDS011;64213;46.452;16.994;2023-12-28T01:28:32;13.52;;;5.45;;
75628;SDS011;64213;46.452;16.994;2023-12-28T01:31:35;21.27;;;8.50;;
75628;SDS011;64213;46.452;16.994;2023-12-28T01:34:37;17.47;;;7.27;;
75628;SDS011;64213;46.452;16.994;2023-12-28T01:37:43;18.35;;;7.15;;
75628;SDS011;64213;46.452;16.994;2023-12-28T01:41:02;21.00;;;9.02;;
75628;SDS011;64213;46.452;16.994;2023-12-28T01:44:04;13.45;;;5.18;;
75628;SDS011;64213;46.452;16.994;2023-12-28T01:47:06;17.23;;;7.15;;
75628;SDS011;64213;46.452;16.994;2023-12-28T01:50:10;20.67;;;9.10;;
75628;SDS011;64213;46.452;16.994;2023-12-28T01:53:12;14.55;;;6.30;;
75628;SDS011;64213;46.452;16.994;2023-12-28T01:56:17;17.77;;;6.22;;
75628;SDS011;64213;46.452;16.994;2023-12-28T01:59:20;14.05;;;6.00;;
75628;SDS011;64213;46.452;16.994;2023-12-28T02:02:23;19.98;;;7.95;;
75628;SDS011;64213;46.452;16.994;2023-12-28T02:05:26;20.60;;;9.00;;
75628;SDS011;64213;46.452;16.994;2023-12-28T02:08:29;17.52;;;8.07;;
75628;SDS011;64213;46.452;16.994;2023-12-28T02:11:31;22.42;;;9.20;;
75628;SDS011;64213;46.452;16.994;2023-12-28T02:14:34;22.52;;;9.70;;
75628;SDS011;64213;46.452;16.994;2023-12-28T02:18:23;22.80;;;10.55;;
75628;SDS011;64213;46.452;16.994;2023-12-28T02:21:18;28.70;;;9.27;;
75628;SDS011;64213;46.452;16.994;2023-12-28T02:24:22;19.62;;;7.68;;
75628;SDS011;64213;46.452;16.994;2023-12-28T02:27:25;18.17;;;7.05;;
75628;SDS011;64213;46.452;16.994;2023-12-28T02:30:28;14.00;;;6.32;;
75628;SDS011;64213;46.452;16.994;2023-12-28T02:33:43;19.05;;;7.70;;
75628;SDS011;64213;46.452;16.994;2023-12-28T02:36:56;18.67;;;8.27;;
75628;SDS011;64213;46.452;16.994;2023-12-28T02:39:59;17.52;;;6.95;;
75628;SDS011;64213;46.452;16.994;2023-12-28T02:43:04;25.23;;;8.38;;
75628;SDS011;64213;46.452;16.994;2023-12-28T02:46:10;20.62;;;8.57;;
75628;SDS011;64213;46.452;16.994;2023-12-28T02:49:13;22.40;;;10.13;;
75628;SDS011;64213;46.452;16.994;2023-12-28T02:52:17;20.97;;;9.17;;
75628;SDS011;64213;46.452;16.994;2023-12-28T02:55:20;21.77;;;8.45;;
75628;SDS011;64213;46.452;16.994;2023-12-28T02:58:22;23.70;;;9.43;;
75628;SDS011;64213;46.452;16.994;2023-12-28T03:01:24;20.12;;;8.82;;
75628;SDS011;64213;46.452;16.994;2023-12-28T03:04:27;24.80;;;9.15;;
75628;SDS011;64213;46.452;16.994;2023-12-28T03:07:29;18.97;;;7.90;;
75628;SDS011;64213;46.452;16.994;2023-12-28T03:10:32;18.90;;;7.53;;
75628;SDS011;64213;46.452;16.994;2023-12-28T03:13:34;22.52;;;8.27;;
75628;SDS011;64213;46.452;16.994;2023-12-28T03:16:38;16.58;;;6.93;;
75628;SDS011;64213;46.452;16.994;2023-12-28T03:19:40;12.35;;;4.85;;
75628;SDS011;64213;46.452;16.994;2023-12-28T03:22:43;13.03;;;5.47;;
75628;SDS011;64213;46.452;16.994;2023-12-28T03:25:45;14.63;;;5.90;;
75628;SDS011;64213;46.452;16.994;2023-12-28T03:28:48;18.73;;;6.12;;
75628;SDS011;64213;46.452;16.994;2023-12-28T03:31:50;17.98;;;7.85;;
75628;SDS011;64213;46.452;16.994;2023-12-28T03:34:52;17.85;;;7.47;;
75628;SDS011;64213;46.452;16.994;2023-12-28T03:37:55;18.10;;;8.17;;
75628;SDS011;64213;46.452;16.994;2023-12-28T03:40:57;17.12;;;7.40;;
75628;SDS011;64213;46.452;16.994;2023-12-28T03:44:00;13.48;;;5.10;;
75628;SDS011;64213;46.452;16.994;2023-12-28T03:47:03;16.92;;;6.07;;
75628;SDS011;64213;46.452;16.994;2023-12-28T03:50:05;14.20;;;5.07;;
75628;SDS011;64213;46.452;16.994;2023-12-28T03:53:08;13.70;;;5.53;;
75628;SDS011;64213;46.452;16.994;2023-12-28T03:56:32;19.23;;;7.12;;
75628;SDS011;64213;46.452;16.994;2023-12-28T03:59:34;18.35;;;6.22;;
75628;SDS011;64213;46.452;16.994;2023-12-28T04:02:37;19.37;;;7.65;;
75628;SDS011;64213;46.452;16.994;2023-12-28T04:05:40;12.50;;;4.75;;
75628;SDS011;64213;46.452;16.994;2023-12-28T04:08:44;15.30;;;5.70;;
75628;SDS011;64213;46.452;16.994;2023-12-28T04:11:48;15.70;;;6.10;;
75628;SDS011;64213;46.452;16.994;2023-12-28T04:14:50;18.20;;;6.93;;
75628;SDS011;64213;46.452;16.994;2023-12-28T04:17:53;18.30;;;7.18;;
75628;SDS011;64213;46.452;16.994;2023-12-28T04:20:55;19.25;;;6.70;;
75628;SDS011;64213;46.452;16.994;2023-12-28T04:23:58;22.23;;;7.53;;
75628;SDS011;64213;46.452;16.994;2023-12-28T04:27:00;15.77;;;5.57;;
75628;SDS011;64213;46.452;16.994;2023-12-28T04:30:03;18.12;;;6.95;;
75628;SDS011;64213;46.452;16.994;2023-12-28T04:33:07;14.23;;;5.95;;
75628;SDS011;64213;46.452;16.994;2023-12-28T04:36:09;17.08;;;6.50;;
75628;SDS011;64213;46.452;16.994;2023-12-28T04:39:12;17.17;;;5.67;;
75628;SDS011;64213;46.452;16.994;2023-12-28T04:42:14;14.73;;;6.05;;
75628;SDS011;64213;46.452;16.994;2023-12-28T04:45:17;17.52;;;6.28;;
75628;SDS011;64213;46.452;16.994;2023-12-28T04:48:19;15.45;;;5.87;;
75628;SDS011;64213;46.452;16.994;2023-12-28T04:51:24;14.27;;;5.57;;
75628;SDS011;64213;46.452;16.994;2023-12-28T04:54:27;13.60;;;4.50;;
75628;SDS011;64213;46.452;16.994;2023-12-28T04:57:29;14.87;;;5.40;;
75628;SDS011;64213;46.452;16.994;2023-12-28T05:00:31;13.30;;;5.05;;
75628;SDS011;64213;46.452;16.994;2023-12-28T05:03:34;13.18;;;5.07;;
75628;SDS011;64213;46.452;16.994;2023-12-28T05:06:37;16.25;;;6.03;;
75628;SDS011;64213;46.452;16.994;2023-12-28T05:09:40;14.40;;;4.83;;
75628;SDS011;64213;46.452;16.994;2023-12-28T05:12:43;15.00;;;5.32;;
75628;SDS011;64213;46.452;16.994;2023-12-28T05:15:45;11.82;;;4.28;;
75628;SDS011;64213;46.452;16.994;2023-12-28T05:18:48;11.82;;;4.35;;
75628;SDS011;64213;46.452;16.994;2023-12-28T05:21:50;12.30;;;4.55;;
75628;SDS011;64213;46.452;16.994;2023-12-28T05:24:53;12.90;;;4.73;;
75628;SDS011;64213;46.452;16.994;2023-12-28T05:27:56;14.60;;;4.47;;
75628;SDS011;64213;46.452;16.994;2023-12-28T05:30:59;13.13;;;5.18;;
75628;SDS011;64213;46.452;16.994;2023-12-28T05:34:02;17.90;;;4.40;;
75628;SDS011;64213;46.452;16.994;2023-12-28T05:37:05;12.95;;;4.93;;
75628;SDS011;64213;46.452;16.994;2023-12-28T05:40:07;11.93;;;3.90;;
75628;SDS011;64213;46.452;16.994;2023-12-28T05:43:11;11.48;;;4.28;;
75628;SDS011;64213;46.452;16.994;2023-12-28T05:46:14;9.77;;;3.75;;
75628;SDS011;64213;46.452;16.994;2023-12-28T05:49:16;12.30;;;4.50;;
75628;SDS011;64213;46.452;16.994;2023-12-28T05:52:19;11.98;;;3.60;;
75628;SDS011;64213;46.452;16.994;2023-12-28T05:55:22;12.73;;;4.53;;
75628;SDS011;64213;46.452;16.994;2023-12-28T05:58:24;14.15;;;4.20;;
75628;SDS011;64213;46.452;16.994;2023-12-28T06:01:27;11.75;;;4.35;;
75628;SDS011;64213;46.452;16.994;2023-12-28T06:04:30;13.27;;;5.18;;
75628;SDS011;64213;46.452;16.994;2023-12-28T06:07:32;10.60;;;4.28;;
75628;SDS011;64213;46.452;16.994;2023-12-28T06:10:35;10.40;;;3.50;;
75628;SDS011;64213;46.452;16.994;2023-12-28T06:13:38;13.30;;;4.85;;
75628;SDS011;64213;46.452;16.994;2023-12-28T06:16:40;13.77;;;5.07;;
75628;SDS011;64213;46.452;16.994;2023-12-28T06:19:42;10.45;;;3.70;;
75628;SDS011;64213;46.452;16.994;2023-12-28T06:22:45;11.70;;;4.43;;
75628;SDS011;64213;46.452;16.994;2023-12-28T06:25:50;10.70;;;4.17;;
75628;SDS011;64213;46.452;16.994;2023-12-28T06:28:53;11.70;;;4.87;;
75628;SDS011;64213;46.452;16.994;2023-12-28T06:31:55;13.82;;;5.80;;
75628;SDS011;64213;46.452;16.994;2023-12-28T06:34:58;13.62;;;5.90;;
75628;SDS011;64213;46.452;16.994;2023-12-28T06:38:00;14.30;;;4.70;;
75628;SDS011;64213;46.452;16.994;2023-12-28T06:41:11;13.30;;;4.67;;
75628;SDS011;64213;46.452;16.994;2023-12-28T06:44:14;12.45;;;4.80;;
75628;SDS011;64213;46.452;16.994;2023-12-28T06:47:17;18.15;;;5.90;;
75628;SDS011;64213;46.452;16.994;2023-12-28T06:50:20;10.27;;;4.03;;
75628;SDS011;64213;46.452;16.994;2023-12-28T06:53:22;12.40;;;4.62;;
75628;SDS011;64213;46.452;16.994;2023-12-28T06:56:25;12.20;;;4.20;;
75628;SDS011;64213;46.452;16.994;2023-12-28T06:59:27;11.93;;;3.85;;
75628;SDS011;64213;46.452;16.994;2023-12-28T07:02:30;11.35;;;4.60;;
75628;SDS011;64213;46.452;16.994;2023-12-28T07:05:32;14.73;;;5.25;;
75628;SDS011;64213;46.452;16.994;2023-12-28T07:08:35;12.98;;;4.75;;
75628;SDS011;64213;46.452;16.994;2023-12-28T07:11:38;16.23;;;5.20;;
75628;SDS011;64213;46.452;16.994;2023-12-28T07:14:41;15.10;;;5.07;;
75628;SDS011;64213;46.452;16.994;2023-12-28T07:17:43;13.00;;;4.65;;
75628;SDS011;64213;46.452;16.994;2023-12-28T07:20:46;12.48;;;4.50;;
75628;SDS011;64213;46.452;16.994;2023-12-28T07:23:48;15.32;;;5.12;;
75628;SDS011;64213;46.452;16.994;2023-12-28T07:26:51;17.30;;;6.30;;
75628;SDS011;64213;46.452;16.994;2023-12-28T07:29:53;14.05;;;5.72;;
75628;SDS011;64213;46.452;16.994;2023-12-28T07:32:55;14.02;;;5.30;;
75628;SDS011;64213;46.452;16.994;2023-12-28T07:35:58;16.02;;;5.82;;
75628;SDS011;64213;46.452;16.994;2023-12-28T07:39:04;13.27;;;5.25;;
75628;SDS011;64213;46.452;16.994;2023-12-28T07:42:07;14.27;;;5.13;;
75628;SDS011;64213;46.452;16.994;2023-12-28T07:45:09;17.02;;;6.05;;
75628;SDS011;64213;46.452;16.994;2023-12-28T07:48:12;17.73;;;6.70;;
75628;SDS011;64213;46.452;16.994;2023-12-28T07:51:15;20.50;;;8.45;;
75628;SDS011;64213;46.452;16.994;2023-12-28T07:54:17;16.20;;;7.10;;
75628;SDS011;64213;46.452;16.994;2023-12-28T07:57:20;16.43;;;6.60;;
75628;SDS011;64213;46.452;16.994;2023-12-28T08:00:23;17.98;;;7.45;;
75628;SDS011;64213;46.452;16.994;2023-12-28T08:03:27;16.27;;;7.78;;
75628;SDS011;64213;46.452;16.994;2023-12-28T08:06:29;16.42;;;6.32;;
75628;SDS011;64213;46.452;16.994;2023-12-28T08:09:36;12.37;;;5.30;;
75628;SDS011;64213;46.452;16.994;2023-12-28T08:12:38;13.60;;;4.90;;
75628;SDS011;64213;46.452;16.994;2023-12-28T08:15:41;11.65;;;3.70;;
75628;SDS011;64213;46.452;16.994;2023-12-28T08:18:44;12.27;;;4.37;;
75628;SDS011;64213;46.452;16.994;2023-12-28T08:21:47;9.80;;;3.20;;
75628;SDS011;64213;46.452;16.994;2023-12-28T08:24:50;11.55;;;3.20;;
75628;SDS011;64213;46.452;16.994;2023-12-28T08:27:52;11.77;;;3.23;;
75628;SDS011;64213;46.452;16.994;2023-12-28T08:30:58;6.60;;;2.62;;
75628;SDS011;64213;46.452;16.994;2023-12-28T08:34:01;9.65;;;3.50;;
75628;SDS011;64213;46.452;16.994;2023-12-28T08:37:03;9.95;;;3.45;;
75628;SDS011;64213;46.452;16.994;2023-12-28T08:40:06;9.60;;;3.70;;
75628;SDS011;64213;46.452;16.994;2023-12-28T08:43:10;11.80;;;3.33;;
75628;SDS011;64213;46.452;16.994;2023-12-28T08:46:13;12.37;;;3.60;;
75628;SDS011;64213;46.452;16.994;2023-12-28T08:49:18;9.52;;;3.17;;
75628;SDS011;64213;46.452;16.994;2023-12-28T08:52:21;8.45;;;2.60;;
75628;SDS011;64213;46.452;16.994;2023-12-28T08:55:23;11.60;;;4.03;;
75628;SDS011;64213;46.452;16.994;2023-12-28T08:58:26;10.30;;;2.70;;
75628;SDS011;64213;46.452;16.994;2023-12-28T09:01:28;8.00;;;2.33;;
75628;SDS011;64213;46.452;16.994;2023-12-28T09:04:32;10.63;;;2.78;;
75628;SDS011;64213;46.452;16.994;2023-12-28T09:07:35;8.98;;;2.75;;
75628;SDS011;64213;46.452;16.994;2023-12-28T09:10:40;9.80;;;2.78;;
75628;SDS011;64213;46.452;16.994;2023-12-28T09:13:43;8.50;;;2.57;;
75628;SDS011;64213;46.452;16.994;2023-12-28T09:16:46;9.50;;;3.10;;
75628;SDS011;64213;46.452;16.994;2023-12-28T09:19:49;8.45;;;2.70;;
75628;SDS011;64213;46.452;16.994;2023-12-28T09:22:52;10.27;;;2.60;;
75628;SDS011;64213;46.452;16.994;2023-12-28T09:25:58;8.95;;;2.70;;
75628;SDS011;64213;46.452;16.994;2023-12-28T09:29:01;10.93;;;3.87;;
75628;SDS011;64213;46.452;16.994;2023-12-28T09:32:04;10.40;;;3.40;;
75628;SDS011;64213;46.452;16.994;2023-12-28T09:35:07;9.38;;;3.22;;
75628;SDS011;64213;46.452;16.994;2023-12-28T09:38:09;8.40;;;2.70;;
75628;SDS011;64213;46.452;16.994;2023-12-28T09:41:13;8.38;;;2.55;;
75628;SDS011;64213;46.452;16.994;2023-12-28T09:44:17;7.30;;;2.07;;
75628;SDS011;64213;46.452;16.994;2023-12-28T09:47:20;7.57;;;2.33;;
75628;SDS011;64213;46.452;16.994;2023-12-28T09:50:23;9.15;;;3.55;;
75628;SDS011;64213;46.452;16.994;2023-12-28T09:53:28;7.65;;;2.30;;
75628;SDS011;64213;46.452;16.994;2023-12-28T09:56:31;7.37;;;2.40;;
75628;SDS011;64213;46.452;16.994;2023-12-28T09:59:35;10.33;;;3.03;;
75628;SDS011;64213;46.452;16.994;2023-12-28T10:02:43;7.68;;;2.28;;
75628;SDS011;64213;46.452;16.994;2023-12-28T10:05:46;11.63;;;3.45;;
75628;SDS011;64213;46.452;16.994;2023-12-28T10:08:49;9.27;;;2.65;;
75628;SDS011;64213;46.452;16.994;2023-12-28T10:11:53;10.88;;;3.50;;
75628;SDS011;64213;46.452;16.994;2023-12-28T10:14:56;9.23;;;2.83;;
75628;SDS011;64213;46.452;16.994;2023-12-28T10:17:59;8.82;;;3.00;;
75628;SDS011;64213;46.452;16.994;2023-12-28T10:21:04;13.02;;;3.42;;
75628;SDS011;64213;46.452;16.994;2023-12-28T10:24:08;7.72;;;2.70;;
75628;SDS011;64213;46.452;16.994;2023-12-28T10:27:15;9.77;;;3.40;;
75628;SDS011;64213;46.452;16.994;2023-12-28T10:30:19;11.23;;;3.07;;
75628;SDS011;64213;46.452;16.994;2023-12-28T10:33:23;12.15;;;3.80;;
75628;SDS011;64213;46.452;16.994;2023-12-28T10:36:26;9.38;;;3.45;;
75628;SDS011;64213;46.452;16.994;2023-12-28T10:39:29;9.65;;;3.53;;
75628;SDS011;64213;46.452;16.994;2023-12-28T10:42:42;9.82;;;3.22;;
75628;SDS011;64213;46.452;16.994;2023-12-28T10:45:51;6.30;;;1.77;;
75628;SDS011;64213;46.452;16.994;2023-12-28T10:48:59;10.57;;;3.40;;
75628;SDS011;64213;46.452;16.994;2023-12-28T10:52:07;10.43;;;3.30;;
75628;SDS011;64213;46.452;16.994;2023-12-28T10:58:47;10.15;;;2.72;;
75628;SDS011;64213;46.452;16.994;2023-12-28T11:01:56;6.80;;;2.07;;
75628;SDS011;64213;46.452;16.994;2023-12-28T11:05:04;6.43;;;1.83;;
75628;SDS011;64213;46.452;16.994;2023-12-28T11:08:09;8.00;;;2.47;;
75628;SDS011;64213;46.452;16.994;2023-12-28T11:11:14;8.95;;;2.55;;
75628;SDS011;64213;46.452;16.994;2023-12-28T11:14:17;7.75;;;2.17;;
75628;SDS011;64213;46.452;16.994;2023-12-28T11:17:20;7.07;;;1.73;;
75628;SDS011;64213;46.452;16.994;2023-12-28T11:20:24;8.27;;;3.03;;
75628;SDS011;64213;46.452;16.994;2023-12-28T11:23:27;8.82;;;2.45;;
75628;SDS011;64213;46.452;16.994;2023-12-28T11:26:30;9.00;;;2.80;;
75628;SDS011;64213;46.452;16.994;2023-12-28T11:29:33;11.52;;;3.12;;
75628;SDS011;64213;46.452;16.994;2023-12-28T11:32:35;8.77;;;2.50;;
75628;SDS011;64213;46.452;16.994;2023-12-28T11:35:39;9.77;;;2.92;;
75628;SDS011;64213;46.452;16.994;2023-12-28T11:38:42;7.22;;;2.37;;
75628;SDS011;64213;46.452;16.994;2023-12-28T11:41:45;9.40;;;3.00;;
75628;SDS011;64213;46.452;16.994;2023-12-28T11:44:47;10.57;;;3.33;;
75628;SDS011;64213;46.452;16.994;2023-12-28T11:47:58;9.33;;;3.17;;
75628;SDS011;64213;46.452;16.994;2023-12-28T11:51:03;10.18;;;2.85;;
75628;SDS011;64213;46.452;16.994;2023-12-28T11:54:05;9.73;;;3.00;;
75628;SDS011;64213;46.452;16.994;2023-12-28T11:57:08;9.75;;;3.90;;
75628;SDS011;64213;46.452;16.994;2023-12-28T12:00:11;7.87;;;2.85;;
75628;SDS011;64213;46.452;16.994;2023-12-28T12:03:14;9.50;;;2.47;;
75628;SDS011;64213;46.452;16.994;2023-12-28T12:06:16;10.35;;;2.55;;
75628;SDS011;64213;46.452;16.994;2023-12-28T12:09:19;8.27;;;3.03;;
75628;SDS011;64213;46.452;16.994;2023-12-28T12:12:25;10.43;;;3.22;;
75628;SDS011;64213;46.452;16.994;2023-12-28T12:15:28;7.95;;;2.50;;
75628;SDS011;64213;46.452;16.994;2023-12-28T12:18:32;6.63;;;1.93;;
75628;SDS011;64213;46.452;16.994;2023-12-28T12:21:35;8.32;;;2.40;;
75628;SDS011;64213;46.452;16.994;2023-12-28T12:24:38;9.32;;;3.30;;
75628;SDS011;64213;46.452;16.994;2023-12-28T12:27:46;8.38;;;2.50;;
75628;SDS011;64213;46.452;16.994;2023-12-28T12:30:53;6.43;;;2.00;;
75628;SDS011;64213;46.452;16.994;2023-12-28T12:33:57;8.80;;;2.90;;
75628;SDS011;64213;46.452;16.994;2023-12-28T12:37:00;9.50;;;2.72;;
75628;SDS011;64213;46.452;16.994;2023-12-28T12:40:03;7.93;;;2.60;;
75628;SDS011;64213;46.452;16.994;2023-12-28T12:43:07;8.73;;;2.65;;
75628;SDS011;64213;46.452;16.994;2023-12-28T12:46:12;8.50;;;2.78;;
75628;SDS011;64213;46.452;16.994;2023-12-28T12:49:15;10.60;;;3.10;;
75628;SDS011;64213;46.452;16.994;2023-12-28T12:52:19;10.38;;;3.10;;
75628;SDS011;64213;46.452;16.994;2023-12-28T12:55:23;9.38;;;2.90;;
75628;SDS011;64213;46.452;16.994;2023-12-28T12:58:25;8.13;;;2.83;;
75628;SDS011;64213;46.452;16.994;2023-12-28T13:01:31;8.38;;;2.87;;
75628;SDS011;64213;46.452;16.994;2023-12-28T13:04:34;10.07;;;2.90;;
75628;SDS011;64213;46.452;16.994;2023-12-28T13:07:36;9.52;;;2.90;;
75628;SDS011;64213;46.452;16.994;2023-12-28T13:10:39;9.63;;;2.62;;
75628;SDS011;64213;46.452;16.994;2023-12-28T13:13:41;9.43;;;2.60;;
75628;SDS011;64213;46.452;16.994;2023-12-28T13:16:44;8.48;;;2.83;;
75628;SDS011;64213;46.452;16.994;2023-12-28T13:19:46;8.77;;;2.30;;
75628;SDS011;64213;46.452;16.994;2023-12-28T13:22:49;7.10;;;1.85;;
75628;SDS011;64213;46.452;16.994;2023-12-28T13:25:51;8.38;;;2.62;;
75628;SDS011;64213;46.452;16.994;2023-12-28T13:28:53;7.53;;;2.35;;
75628;SDS011;64213;46.452;16.994;2023-12-28T13:31:56;7.53;;;2.35;;
75628;SDS011;64213;46.452;16.994;2023-12-28T13:34:59;8.67;;;2.57;;
75628;SDS011;64213;46.452;16.994;2023-12-28T13:38:05;8.85;;;2.30;;
75628;SDS011;64213;46.452;16.994;2023-12-28T13:41:07;8.38;;;2.70;;
75628;SDS011;64213;46.452;16.994;2023-12-28T13:44:09;8.70;;;2.30;;
75628;SDS011;64213;46.452;16.994;2023-12-28T13:47:12;8.77;;;2.75;;
75628;SDS011;64213;46.452;16.994;2023-12-28T13:50:15;8.90;;;2.37;;
75628;SDS011;64213;46.452;16.994;2023-12-28T13:53:17;10.80;;;2.95;;
75628;SDS011;64213;46.452;16.994;2023-12-28T13:56:19;9.25;;;2.83;;
75628;SDS011;64213;46.452;16.994;2023-12-28T13:59:22;9.73;;;3.22;;
75628;SDS011;64213;46.452;16.994;2023-12-28T14:02:24;10.50;;;3.10;;
75628;SDS011;64213;46.452;16.994;2023-12-28T14:05:27;6.40;;;1.80;;
75628;SDS011;64213;46.452;16.994;2023-12-28T14:08:33;8.48;;;2.67;;
75628;SDS011;64213;46.452;16.994;2023-12-28T14:11:35;9.35;;;2.78;;
75628;SDS011;64213;46.452;16.994;2023-12-28T14:14:38;7.32;;;2.60;;
75628;SDS011;64213;46.452;16.994;2023-12-28T14:17:40;7.28;;;2.47;;
75628;SDS011;64213;46.452;16.994;2023-12-28T14:20:43;8.60;;;2.83;;
75628;SDS011;64213;46.452;16.994;2023-12-28T14:23:45;10.93;;;3.70;;
75628;SDS011;64213;46.452;16.994;2023-12-28T14:26:48;12.55;;;4.45;;
75628;SDS011;64213;46.452;16.994;2023-12-28T14:29:56;11.15;;;3.92;;
75628;SDS011;64213;46.452;16.994;2023-12-28T14:33:00;12.27;;;4.68;;
75628;SDS011;64213;46.452;16.994;2023-12-28T14:36:04;10.63;;;3.87;;
75628;SDS011;64213;46.452;16.994;2023-12-28T14:39:12;13.70;;;4.12;;
75628;SDS011;64213;46.452;16.994;2023-12-28T14:42:14;7.68;;;2.50;;
75628;SDS011;64213;46.452;16.994;2023-12-28T14:45:17;10.45;;;4.37;;
75628;SDS011;64213;46.452;16.994;2023-12-28T14:48:19;13.55;;;3.90;;
75628;SDS011;64213;46.452;16.994;2023-12-28T14:51:22;9.57;;;2.87;;
75628;SDS011;64213;46.452;16.994;2023-12-28T14:54:25;9.55;;;2.83;;
75628;SDS011;64213;46.452;16.994;2023-12-28T14:57:28;10.27;;;3.85;;
75628;SDS011;64213;46.452;16.994;2023-12-28T15:00:31;11.07;;;2.90;;
75628;SDS011;64213;46.452;16.994;2023-12-28T15:03:33;9.18;;;3.40;;
75628;SDS011;64213;46.452;16.994;2023-12-28T15:06:36;7.97;;;2.63;;
75628;SDS011;64213;46.452;16.994;2023-12-28T15:09:38;10.43;;;3.70;;
75628;SDS011;64213;46.452;16.994;2023-12-28T15:12:41;9.48;;;3.37;;
75628;SDS011;64213;46.452;16.994;2023-12-28T15:15:44;10.00;;;3.20;;
75628;SDS011;64213;46.452;16.994;2023-12-28T15:18:47;9.60;;;3.55;;
75628;SDS011;64213;46.452;16.994;2023-12-28T15:21:50;8.27;;;2.37;;
75628;SDS011;64213;46.452;16.994;2023-12-28T15:24:53;9.77;;;2.92;;
75628;SDS011;64213;46.452;16.994;2023-12-28T15:27:56;10.02;;;3.40;;
75628;SDS011;64213;46.452;16.994;2023-12-28T15:30:59;40.70;;;15.50;;
75628;SDS011;64213;46.452;16.994;2023-12-28T15:34:02;16.00;;;5.62;;
75628;SDS011;64213;46.452;16.994;2023-12-28T15:37:05;9.87;;;3.63;;
75628;SDS011;64213;46.452;16.994;2023-12-28T15:40:08;10.10;;;3.67;;
75628;SDS011;64213;46.452;16.994;2023-12-28T15:43:11;9.70;;;3.53;;
75628;SDS011;64213;46.452;16.994;2023-12-28T15:46:13;11.57;;;3.12;;
75628;SDS011;64213;46.452;16.994;2023-12-28T15:49:16;9.55;;;3.37;;
75628;SDS011;64213;46.452;16.994;2023-12-28T15:52:18;9.60;;;2.80;;
75628;SDS011;64213;46.452;16.994;2023-12-28T15:55:21;10.40;;;3.47;;
75628;SDS011;64213;46.452;16.994;2023-12-28T15:58:24;10.07;;;3.83;;
75628;SDS011;64213;46.452;16.994;2023-12-28T16:01:27;10.57;;;3.20;;
75628;SDS011;64213;46.452;16.994;2023-12-28T16:04:30;8.05;;;2.92;;
75628;SDS011;64213;46.452;16.994;2023-12-28T16:07:33;10.90;;;3.10;;
75628;SDS011;64213;46.452;16.994;2023-12-28T16:10:36;10.93;;;3.50;;
75628;SDS011;64213;46.452;16.994;2023-12-28T16:13:39;8.85;;;2.37;;
75628;SDS011;64213;46.452;16.994;2023-12-28T16:16:45;10.50;;;3.55;;
75628;SDS011;64213;46.452;16.994;2023-12-28T16:19:48;9.73;;;3.55;;
75628;SDS011;64213;46.452;16.994;2023-12-28T16:22:51;9.97;;;3.03;;
75628;SDS011;64213;46.452;16.994;2023-12-28T16:25:54;11.05;;;3.65;;
75628;SDS011;64213;46.452;16.994;2023-12-28T16:28:57;11.48;;;4.40;;
75628;SDS011;64213;46.452;16.994;2023-12-28T16:31:59;11.52;;;3.42;;
75628;SDS011;64213;46.452;16.994;2023-12-28T16:35:02;9.10;;;3.03;;
75628;SDS011;64213;46.452;16.994;2023-12-28T16:38:05;10.40;;;3.93;;
75628;SDS011;64213;46.452;16.994;2023-12-28T16:41:08;8.15;;;2.55;;
75628;SDS011;64213;46.452;16.994;2023-12-28T16:44:11;6.82;;;1.77;;
75628;SDS011;64213;46.452;16.994;2023-12-28T16:47:13;9.90;;;2.60;;
75628;SDS011;64213;46.452;16.994;2023-12-28T16:50:16;10.25;;;2.53;;
75628;SDS011;64213;46.452;16.994;2023-12-28T16:53:21;11.90;;;3.60;;
75628;SDS011;64213;46.452;16.994;2023-12-28T16:56:25;15.95;;;4.97;;
75628;SDS011;64213;46.452;16.994;2023-12-28T16:59:29;14.95;;;5.12;;
75628;SDS011;64213;46.452;16.994;2023-12-28T17:02:32;13.95;;;5.12;;
75628;SDS011;64213;46.452;16.994;2023-12-28T17:05:37;13.23;;;5.10;;
75628;SDS011;64213;46.452;16.994;2023-12-28T17:08:41;11.77;;;4.10;;
75628;SDS011;64213;46.452;16.994;2023-12-28T17:11:44;11.68;;;4.25;;
75628;SDS011;64213;46.452;16.994;2023-12-28T17:14:48;11.18;;;4.50;;
75628;SDS011;64213;46.452;16.994;2023-12-28T17:17:51;11.10;;;3.53;;
75628;SDS011;64213;46.452;16.994;2023-12-28T17:20:53;12.30;;;4.35;;
75628;SDS011;64213;46.452;16.994;2023-12-28T17:23:56;9.53;;;3.70;;
75628;SDS011;64213;46.452;16.994;2023-12-28T17:27:00;10.15;;;3.30;;
75628;SDS011;64213;46.452;16.994;2023-12-28T17:30:10;9.10;;;3.30;;
75628;SDS011;64213;46.452;16.994;2023-12-28T17:33:17;9.60;;;3.25;;
75628;SDS011;64213;46.452;16.994;2023-12-28T17:36:21;11.90;;;4.00;;
75628;SDS011;64213;46.452;16.994;2023-12-28T17:39:25;10.73;;;2.97;;
75628;SDS011;64213;46.452;16.994;2023-12-28T17:42:29;10.40;;;3.40;;
75628;SDS011;64213;46.452;16.994;2023-12-28T17:45:59;9.25;;;3.33;;
75628;SDS011;64213;46.452;16.994;2023-12-28T17:49:06;11.85;;;3.78;;
75628;SDS011;64213;46.452;16.994;2023-12-28T17:52:16;11.52;;;4.00;;
75628;SDS011;64213;46.452;16.994;2023-12-28T17:55:19;10.47;;;3.47;;
75628;SDS011;64213;46.452;16.994;2023-12-28T17:58:22;8.98;;;2.90;;
75628;SDS011;64213;46.452;16.994;2023-12-28T18:01:24;10.23;;;3.17;;